createdAt,value
2023-04-10T00:00:15.632Z,9.90
2023-04-10T00:03:18.059Z,9.73
2023-04-10T00:06:20.368Z,8.77
2023-04-10T00:09:22.552Z,9.23
2023-04-10T00:15:47.663Z,10.63
2023-04-10T00:18:49.089Z,10.33
2023-04-10T00:21:51.000Z,9.87
2023-04-10T00:24:52.814Z,10.40
2023-04-10T00:27:54.751Z,9.87
2023-04-10T00:30:56.513Z,10.70
2023-04-10T00:33:58.351Z,9.67
2023-04-10T00:37:01.054Z,9.73
2023-04-10T00:40:02.935Z,10.73
2023-04-10T00:43:04.757Z,9.87
2023-04-10T00:46:09.615Z,10.70
2023-04-10T00:49:11.746Z,10.10
2023-04-10T00:52:13.617Z,11.20
2023-04-10T00:55:16.053Z,10.40
2023-04-10T00:58:18.113Z,10.17
2023-04-10T01:01:20.738Z,10.80
2023-04-10T01:04:28.991Z,10.70
2023-04-10T01:07:49.917Z,11.37
2023-04-10T01:11:11.162Z,10.53
2023-04-10T01:14:19.550Z,11.27
2023-04-10T01:18:06.223Z,10.27
2023-04-10T01:21:11.710Z,10.83
2023-04-10T01:25:04.706Z,9.63
2023-04-10T01:28:19.287Z,10.07
2023-04-10T01:31:30.123Z,10.10
2023-04-10T01:34:56.812Z,10.07
2023-04-10T01:38:05.339Z,10.47
2023-04-10T01:41:08.010Z,10.20
2023-04-10T01:44:14.715Z,9.40
2023-04-10T01:47:18.267Z,10.17
2023-04-10T01:50:24.206Z,11.10
2023-04-10T01:53:26.908Z,9.83
2023-04-10T01:56:28.798Z,9.33
2023-04-10T01:59:31.275Z,10.37
2023-04-10T02:02:34.334Z,10.60
2023-04-10T02:06:02.334Z,9.30
2023-04-10T02:09:31.571Z,11.07
2023-04-10T02:12:41.576Z,10.13
2023-04-10T02:15:47.216Z,9.90
2023-04-10T02:18:50.560Z,9.40
2023-04-10T02:21:53.516Z,11.13
2023-04-10T02:24:56.775Z,10.13
2023-04-10T02:27:59.042Z,10.00
2023-04-10T02:31:00.623Z,10.10
2023-04-10T02:34:02.538Z,9.33
2023-04-10T02:37:04.351Z,10.50
2023-04-10T02:40:06.841Z,12.03
2023-04-10T02:43:18.161Z,11.00
2023-04-10T02:46:21.119Z,10.37
2023-04-10T02:49:22.932Z,10.00
2023-04-10T02:52:25.984Z,11.23
2023-04-10T02:55:28.895Z,8.97
2023-04-10T02:58:51.819Z,11.03
2023-04-10T03:01:53.971Z,9.63
2023-04-10T03:04:55.988Z,10.60
2023-04-10T03:07:58.233Z,10.77
2023-04-10T03:11:00.465Z,9.53
2023-04-10T03:14:04.047Z,10.53
2023-04-10T03:17:05.665Z,10.07
2023-04-10T03:20:10.293Z,10.00
2023-04-10T03:23:12.204Z,9.73
2023-04-10T03:26:14.013Z,9.60
2023-04-10T03:29:18.861Z,9.70
2023-04-10T03:32:20.818Z,10.20
2023-04-10T03:35:46.518Z,11.20
2023-04-10T03:38:48.376Z,9.83
2023-04-10T03:41:50.193Z,10.10
2023-04-10T03:44:52.728Z,9.80
2023-04-10T03:47:55.905Z,10.70
2023-04-10T03:50:58.599Z,10.60
2023-04-10T03:54:00.180Z,10.77
2023-04-10T03:57:02.836Z,12.00
2023-04-10T04:00:05.827Z,10.50
2023-04-10T04:03:21.810Z,10.07
2023-04-10T04:06:23.818Z,12.63
2023-04-10T04:09:47.887Z,11.80
2023-04-10T04:13:08.166Z,9.47
2023-04-10T04:16:27.359Z,11.27
2023-04-10T04:19:52.383Z,10.90
2023-04-10T04:23:06.392Z,12.50
2023-04-10T04:26:36.789Z,11.50
2023-04-10T04:29:58.879Z,11.37
2023-04-10T04:33:18.362Z,11.17
2023-04-10T04:36:52.352Z,10.80
2023-04-10T04:40:00.144Z,10.03
2023-04-10T04:43:21.513Z,11.80
2023-04-10T04:46:36.674Z,10.97
2023-04-10T04:50:06.029Z,11.30
2023-04-10T04:53:25.806Z,10.43
2023-04-10T04:57:07.074Z,11.47
2023-04-10T05:00:31.031Z,11.67
2023-04-10T05:03:39.848Z,10.67
2023-04-10T05:07:04.831Z,10.30
2023-04-10T05:10:13.763Z,10.90
2023-04-10T05:13:44.092Z,10.83
2023-04-10T05:17:09.799Z,12.30
2023-04-10T05:20:21.730Z,11.93
2023-04-10T05:23:46.436Z,10.87
2023-04-10T05:27:12.650Z,11.40
2023-04-10T05:30:38.363Z,11.43
2023-04-10T05:33:58.588Z,10.07
2023-04-10T05:37:12.939Z,11.90
2023-04-10T05:40:21.316Z,11.47
2023-04-10T05:43:45.656Z,11.10
2023-04-10T05:46:59.054Z,12.90
2023-04-10T05:50:18.221Z,11.80
2023-04-10T05:53:34.173Z,11.20
2023-04-10T05:57:02.234Z,10.33
2023-04-10T06:00:19.535Z,10.93
2023-04-10T06:03:44.251Z,12.07
2023-04-10T06:06:46.917Z,10.30
2023-04-10T06:09:48.319Z,12.07
2023-04-10T06:12:50.134Z,10.07
2023-04-10T06:15:52.082Z,9.70
2023-04-10T06:18:54.590Z,9.67
2023-04-10T06:21:56.623Z,13.17
2023-04-10T06:24:58.930Z,10.77
2023-04-10T06:28:01.247Z,10.60
2023-04-10T06:31:04.169Z,11.20
2023-04-10T06:34:09.654Z,10.83
2023-04-10T06:37:27.629Z,11.70
2023-04-10T06:40:30.840Z,11.20
2023-04-10T06:43:34.639Z,11.23
2023-04-10T06:46:36.856Z,10.10
2023-04-10T06:49:38.655Z,9.73
2023-04-10T06:52:40.421Z,9.73
2023-04-10T06:55:41.849Z,10.73
2023-04-10T06:58:43.216Z,11.13
2023-04-10T07:01:45.002Z,9.80
2023-04-10T07:04:49.879Z,10.93
2023-04-10T07:07:52.058Z,11.07
2023-04-10T07:10:53.822Z,9.70
2023-04-10T07:13:58.331Z,11.03
2023-04-10T07:17:00.166Z,10.10
2023-04-10T07:20:02.296Z,9.50
2023-04-10T07:23:04.292Z,10.57
2023-04-10T07:26:06.526Z,9.97
2023-04-10T07:29:09.399Z,10.57
2023-04-10T07:32:11.370Z,9.87
2023-04-10T07:35:13.320Z,9.37
2023-04-10T07:38:15.134Z,9.93
2023-04-10T07:41:16.965Z,8.67
2023-04-10T07:44:20.224Z,9.93
2023-04-10T07:47:21.644Z,9.63
2023-04-10T07:50:26.136Z,8.93
2023-04-10T07:53:28.082Z,9.53
2023-04-10T07:56:31.683Z,10.03
2023-04-10T07:59:33.096Z,9.20
2023-04-10T08:02:38.532Z,8.63
2023-04-10T08:05:40.434Z,8.27
2023-04-10T08:08:42.637Z,8.53
2023-04-10T08:11:44.627Z,8.30
2023-04-10T08:14:46.009Z,7.93
2023-04-10T08:17:51.002Z,8.20
2023-04-10T08:20:52.950Z,7.33
2023-04-10T08:23:56.939Z,8.43
2023-04-10T08:26:58.824Z,9.87
2023-04-10T08:30:00.597Z,7.93
2023-04-10T08:33:02.467Z,7.10
2023-04-10T08:36:27.023Z,9.10
2023-04-10T08:39:28.859Z,7.27
2023-04-10T08:42:32.207Z,7.03
2023-04-10T08:45:35.323Z,7.10
2023-04-10T08:48:53.064Z,6.83
2023-04-10T08:52:02.161Z,6.60
2023-04-10T08:55:08.004Z,7.10
2023-04-10T08:58:11.362Z,6.67
2023-04-10T09:01:13.782Z,6.50
2023-04-10T09:04:19.718Z,6.17
2023-04-10T09:07:25.824Z,5.30
2023-04-10T09:10:30.141Z,6.87
2023-04-10T09:13:54.269Z,4.90
2023-04-10T09:17:19.275Z,5.77
2023-04-10T09:20:23.077Z,5.40
2023-04-10T09:23:25.028Z,5.17
2023-04-10T09:26:31.130Z,6.80
2023-04-10T09:29:49.931Z,4.73
2023-04-10T09:32:51.811Z,5.07
2023-04-10T09:35:57.220Z,5.00
2023-04-10T09:38:59.022Z,6.37
2023-04-10T09:42:00.923Z,5.40
2023-04-10T09:45:04.470Z,5.03
2023-04-10T09:48:08.210Z,5.53
2023-04-10T09:51:29.770Z,5.67
2023-04-10T09:54:38.374Z,5.57
2023-04-10T09:57:39.902Z,5.53
2023-04-10T10:00:44.371Z,5.37
2023-04-10T10:03:46.668Z,5.17
2023-04-10T10:06:49.093Z,6.97
2023-04-10T10:09:52.066Z,4.90
2023-04-10T10:13:01.672Z,5.40
2023-04-10T10:16:06.702Z,4.53
2023-04-10T10:19:41.118Z,4.90
2023-04-10T10:22:43.033Z,6.33
2023-04-10T10:25:46.169Z,5.00
2023-04-10T10:28:48.549Z,5.03
2023-04-10T10:31:51.015Z,6.20
2023-04-10T10:34:53.666Z,5.37
2023-04-10T10:37:55.595Z,5.23
2023-04-10T10:41:09.047Z,4.77
2023-04-10T10:44:23.176Z,5.10
2023-04-10T10:47:29.313Z,4.90
2023-04-10T10:50:53.567Z,4.67
2023-04-10T10:53:55.749Z,4.40
2023-04-10T10:56:57.342Z,4.30
2023-04-10T10:59:58.790Z,4.40
2023-04-10T11:03:20.686Z,3.83
2023-04-10T11:06:50.145Z,3.97
2023-04-10T11:09:55.160Z,4.47
2023-04-10T11:13:17.663Z,3.60
2023-04-10T11:16:21.207Z,3.73
2023-04-10T11:19:25.723Z,4.00
2023-04-10T11:22:27.913Z,3.83
2023-04-10T11:25:54.072Z,3.80
2023-04-10T11:28:56.719Z,3.90
2023-04-10T11:32:04.267Z,3.77
2023-04-10T11:35:09.113Z,3.30
2023-04-10T11:38:16.172Z,3.53
2023-04-10T11:41:18.005Z,3.43
2023-04-10T11:44:26.745Z,3.43
2023-04-10T11:47:28.407Z,4.07
2023-04-10T11:50:32.169Z,3.50
2023-04-10T11:53:34.120Z,4.37
2023-04-10T11:56:37.948Z,3.67
2023-04-10T11:59:39.349Z,3.37
2023-04-10T12:02:52.548Z,3.07
2023-04-10T12:05:54.556Z,3.07
2023-04-10T12:08:56.816Z,3.27
2023-04-10T12:12:04.075Z,3.57
2023-04-10T12:15:26.317Z,2.90
2023-04-10T12:18:29.703Z,3.63
2023-04-10T12:21:32.679Z,3.30
2023-04-10T12:24:50.646Z,2.80
2023-04-10T12:27:52.925Z,3.10
2023-04-10T12:30:55.230Z,2.63
2023-04-10T12:33:58.114Z,2.67
2023-04-10T12:36:59.940Z,2.83
2023-04-10T12:40:07.966Z,2.70
2023-04-10T12:43:10.222Z,2.60
2023-04-10T12:46:26.410Z,3.20
2023-04-10T12:49:28.449Z,2.70
2023-04-10T12:52:30.443Z,2.67
2023-04-10T12:55:32.823Z,2.60
2023-04-10T12:58:34.279Z,2.60
2023-04-10T13:01:39.671Z,2.30
2023-04-10T13:04:42.628Z,2.27
2023-04-10T13:07:47.405Z,2.27
2023-04-10T13:10:49.457Z,1.93
2023-04-10T13:13:52.589Z,2.73
2023-04-10T13:16:54.363Z,2.57
2023-04-10T13:19:56.332Z,2.27
2023-04-10T13:22:58.206Z,1.83
2023-04-10T13:26:00.194Z,2.17
2023-04-10T13:29:02.176Z,2.50
2023-04-10T13:32:05.479Z,2.17
2023-04-10T13:35:07.153Z,1.90
2023-04-10T13:38:11.980Z,3.07
2023-04-10T13:41:13.395Z,1.80
2023-04-10T13:44:15.152Z,2.20
2023-04-10T13:47:17.032Z,2.30
2023-04-10T13:50:19.406Z,2.13
2023-04-10T13:53:20.926Z,1.70
2023-04-10T13:56:22.736Z,2.00
2023-04-10T13:59:24.716Z,2.37
2023-04-10T14:02:26.692Z,2.57
2023-04-10T14:05:28.724Z,2.30
2023-04-10T14:08:30.742Z,2.37
2023-04-10T14:11:32.558Z,2.40
2023-04-10T14:14:34.866Z,2.40
2023-04-10T14:17:36.279Z,1.90
2023-04-10T14:20:38.937Z,1.83
2023-04-10T14:23:41.340Z,1.50
2023-04-10T14:26:43.201Z,1.73
2023-04-10T14:29:54.349Z,1.73
2023-04-10T14:32:57.348Z,1.93
2023-04-10T14:35:59.248Z,1.70
2023-04-10T14:39:00.976Z,1.77
2023-04-10T14:42:03.011Z,1.50
2023-04-10T14:45:06.116Z,1.50
2023-04-10T14:48:09.885Z,1.40
2023-04-10T14:51:12.837Z,1.60
2023-04-10T14:54:15.810Z,1.40
2023-04-10T14:57:17.566Z,1.53
2023-04-10T15:00:19.693Z,1.27
2023-04-10T15:03:24.457Z,1.43
2023-04-10T15:06:28.114Z,1.30
2023-04-10T15:09:30.033Z,1.53
2023-04-10T15:12:31.847Z,1.63
2023-04-10T15:15:33.566Z,1.60
2023-04-10T15:18:35.167Z,1.77
2023-04-10T15:21:36.957Z,2.87
2023-04-10T15:24:49.917Z,4.27
2023-04-10T15:27:55.215Z,2.50
2023-04-10T15:30:57.758Z,3.87
2023-04-10T15:33:59.626Z,2.80
2023-04-10T15:37:01.350Z,2.73
2023-04-10T15:40:04.512Z,2.53
2023-04-10T15:43:06.288Z,2.60
2023-04-10T15:46:08.227Z,2.30
2023-04-10T15:49:09.951Z,4.43
2023-04-10T15:52:11.669Z,2.83
2023-04-10T15:55:14.827Z,4.37
2023-04-10T15:58:16.280Z,2.20
2023-04-10T16:01:18.045Z,2.30
2023-04-10T16:04:20.309Z,2.20
2023-04-10T16:07:22.076Z,2.10
2023-04-10T16:10:23.816Z,2.00
2023-04-10T16:13:25.762Z,2.17
2023-04-10T16:16:29.292Z,4.43
2023-04-10T16:19:31.508Z,3.53
2023-04-10T16:22:33.256Z,3.73
2023-04-10T16:25:34.645Z,2.40
2023-04-10T16:28:36.346Z,2.30
2023-04-10T16:31:38.090Z,2.40
2023-04-10T16:34:39.886Z,2.07
2023-04-10T16:37:41.621Z,2.50
2023-04-10T16:40:43.023Z,2.50
2023-04-10T16:43:44.786Z,2.10
2023-04-10T16:46:46.920Z,2.97
2023-04-10T16:49:48.531Z,3.30
2023-04-10T16:52:50.029Z,2.20
2023-04-10T16:55:58.538Z,3.17
2023-04-10T16:59:00.578Z,2.47
2023-04-10T17:02:02.324Z,2.50
2023-04-10T17:05:04.146Z,2.50
2023-04-10T17:08:06.363Z,2.80
2023-04-10T17:11:08.132Z,5.77
2023-04-10T17:14:10.480Z,2.30
2023-04-10T17:17:13.020Z,3.53
2023-04-10T17:20:15.011Z,2.50
2023-04-10T17:23:16.773Z,2.40
2023-04-10T17:26:19.054Z,2.37
2023-04-10T17:29:20.900Z,2.67
2023-04-10T17:32:22.597Z,2.47
2023-04-10T17:35:25.639Z,2.33
2023-04-10T17:41:28.936Z,2.53
2023-04-10T17:44:30.688Z,2.50
2023-04-10T17:47:32.551Z,6.77
2023-04-10T17:50:35.047Z,2.63
2023-04-10T17:53:36.841Z,2.87
2023-04-10T17:56:38.494Z,6.60
2023-04-10T17:59:39.890Z,6.90
2023-04-10T18:02:42.889Z,4.90
2023-04-10T18:05:44.726Z,3.77
2023-04-10T18:08:46.442Z,4.17
2023-04-10T18:11:50.382Z,3.30
2023-04-10T18:14:51.758Z,3.23
2023-04-10T18:17:54.101Z,3.77
2023-04-10T18:20:55.929Z,4.23
2023-04-10T18:23:57.652Z,4.93
2023-04-10T18:26:59.360Z,3.20
2023-04-10T18:30:01.549Z,3.57
2023-04-10T18:33:05.440Z,3.30
2023-04-10T18:36:08.362Z,3.00
2023-04-10T18:39:10.713Z,2.63
2023-04-10T18:42:12.427Z,3.70
2023-04-10T18:45:14.241Z,4.47
2023-04-10T18:48:16.366Z,4.30
2023-04-10T18:51:17.957Z,5.07
2023-04-10T18:54:19.706Z,4.00
2023-04-10T18:57:21.389Z,3.80
2023-04-10T19:00:22.902Z,3.63
2023-04-10T19:03:24.806Z,4.90
2023-04-10T19:06:26.755Z,3.43
2023-04-10T19:09:28.569Z,3.33
2023-04-10T19:12:30.089Z,3.27
2023-04-10T19:15:31.499Z,4.17
2023-04-10T19:18:33.290Z,3.33
2023-04-10T19:21:35.069Z,4.07
2023-04-10T19:24:36.880Z,4.03
2023-04-10T19:27:38.725Z,5.30
2023-04-10T19:30:40.525Z,4.43
2023-04-10T19:33:42.040Z,3.47
2023-04-10T19:36:43.816Z,4.13
2023-04-10T19:39:45.294Z,6.73
2023-04-10T19:42:47.016Z,7.77
2023-04-10T19:45:48.773Z,5.17
2023-04-10T19:48:51.758Z,5.10
2023-04-10T19:51:53.578Z,4.70
2023-04-10T19:54:55.007Z,5.30
2023-04-10T19:57:56.792Z,5.30
2023-04-10T20:01:03.391Z,4.93
2023-04-10T20:04:05.269Z,5.47
2023-04-10T20:07:07.161Z,5.53
2023-04-10T20:10:09.257Z,4.00
2023-04-10T20:13:11.347Z,4.27
2023-04-10T20:16:13.098Z,3.57
2023-04-10T20:19:15.072Z,3.07
2023-04-10T20:22:16.824Z,3.50
2023-04-10T20:25:18.538Z,3.73
2023-04-10T20:28:20.450Z,2.83
2023-04-10T20:31:22.524Z,3.30
2023-04-10T20:34:24.751Z,3.67
2023-04-10T20:37:26.192Z,4.00
2023-04-10T20:40:27.902Z,3.17
2023-04-10T20:43:29.361Z,4.77
2023-04-10T20:46:31.261Z,3.00
2023-04-10T20:49:32.888Z,4.70
2023-04-10T20:52:34.605Z,3.33
2023-04-10T20:55:39.704Z,3.67
2023-04-10T20:58:41.151Z,3.00
2023-04-10T21:01:42.998Z,3.43
2023-04-10T21:04:44.724Z,3.10
2023-04-10T21:07:46.425Z,3.20
2023-04-10T21:10:48.123Z,3.00
2023-04-10T21:13:49.845Z,3.07
2023-04-10T21:16:51.576Z,3.03
2023-04-10T21:19:53.331Z,3.33
2023-04-10T21:22:55.292Z,3.40
2023-04-10T21:25:57.003Z,5.63
2023-04-10T21:28:58.738Z,4.43
2023-04-10T21:32:00.605Z,3.83
2023-04-10T21:35:02.354Z,3.50
2023-04-10T21:38:04.473Z,3.40
2023-04-10T21:41:06.211Z,3.30
2023-04-10T21:44:07.974Z,3.50
2023-04-10T21:47:09.712Z,3.30
2023-04-10T21:50:11.512Z,2.80
2023-04-10T21:53:13.322Z,3.60
2023-04-10T21:56:15.650Z,2.77
2023-04-10T21:59:17.818Z,4.53
2023-04-10T22:02:19.262Z,7.93
2023-04-10T22:05:21.134Z,3.57
2023-04-10T22:08:22.901Z,2.57
2023-04-10T22:11:24.681Z,3.13
2023-04-10T22:14:26.614Z,2.10
2023-04-10T22:17:28.403Z,3.40
2023-04-10T22:20:30.618Z,2.93
2023-04-10T22:23:32.077Z,2.60
2023-04-10T22:26:34.810Z,2.27
2023-04-10T22:29:36.624Z,4.30
2023-04-10T22:32:38.403Z,3.30
2023-04-10T22:35:40.916Z,3.33
2023-04-10T22:38:42.301Z,4.60
2023-04-10T22:41:43.960Z,4.77
2023-04-10T22:44:46.704Z,2.07
2023-04-10T22:47:48.084Z,2.00
2023-04-10T22:50:49.748Z,1.70
2023-04-10T22:53:51.398Z,3.37
2023-04-10T22:56:53.073Z,3.73
2023-04-10T22:59:55.291Z,3.27
2023-04-10T23:02:56.794Z,1.90
2023-04-10T23:05:58.502Z,2.17
2023-04-10T23:09:00.185Z,3.37
2023-04-10T23:12:01.938Z,4.23
2023-04-10T23:15:05.480Z,3.97
2023-04-10T23:18:07.199Z,3.47
2023-04-10T23:21:08.936Z,2.63
2023-04-10T23:24:10.593Z,4.60
2023-04-10T23:27:12.260Z,2.77
2023-04-10T23:30:14.239Z,3.63
2023-04-10T23:33:15.782Z,3.30
2023-04-10T23:36:17.719Z,5.67
2023-04-10T23:39:20.199Z,3.67
2023-04-10T23:42:21.872Z,2.57
2023-04-10T23:45:23.882Z,2.33
2023-04-10T23:48:25.409Z,2.97
2023-04-10T23:51:27.884Z,4.00
2023-04-10T23:54:29.618Z,4.57
2023-04-10T23:57:31.302Z,4.30
